Time;durP1;ratioP1;P1;durP2;ratioP2;P2;SDS_P1;SDS_P2;PMS_P1;PMS_P2;Temp;Humidity;BMP_temperature;BMP_pressure;BME280_temperature;BME280_humidity;BME280_pressure;Samples;Min_cycle;Max_cycle;Signal;HPM_P1;HPM_P2
2021/09/24 00:02:09;;;;;;;3.72;2.97;;;13.60;99.90;;;;;;5015169;28;20034;-88
2021/09/24 00:04:36;;;;;;;3.58;3.13;;;13.40;99.90;;;;;;5015110;28;20026;-88
2021/09/24 00:07:03;;;;;;;5.00;3.10;;;13.40;99.90;;;;;;5016378;28;20045;-88
2021/09/24 00:09:29;;;;;;;3.75;2.90;;;13.50;99.90;;;;;;5015220;28;20410;-88
2021/09/24 00:11:55;;;;;;;4.75;3.33;;;13.90;99.90;;;;;;5014976;28;20061;-87
2021/09/24 00:14:21;;;;;;;5.32;2.90;;;14.10;99.90;;;;;;5015024;28;20018;-89
2021/09/24 00:16:46;;;;;;;4.20;2.90;;;14.20;99.90;;;;;;5014881;28;20495;-88
2021/09/24 00:19:12;;;;;;;7.25;3.10;;;13.80;99.90;;;;;;5016153;28;20076;-88
2021/09/24 00:21:38;;;;;;;11.77;3.22;;;13.70;99.90;;;;;;5015215;28;20473;-88
2021/09/24 00:24:04;;;;;;;3.88;2.75;;;13.50;99.90;;;;;;5015011;28;20022;-88
2021/09/24 00:26:30;;;;;;;3.00;2.70;;;13.30;99.90;;;;;;5014873;28;20556;-88
2021/09/24 00:28:57;;;;;;;5.28;3.00;;;13.30;99.90;;;;;;5015405;28;20061;-87
2021/09/24 00:31:24;;;;;;;8.38;3.20;;;13.20;99.90;;;;;;5014884;28;20033;-87
2021/09/24 00:33:50;;;;;;;4.55;2.85;;;13.30;99.90;;;;;;5014588;28;20021;-88
2021/09/24 00:36:16;;;;;;;4.53;3.00;;;13.30;99.90;;;;;;5014533;28;20030;-88
2021/09/24 00:38:43;;;;;;;4.43;2.45;;;13.40;99.90;;;;;;5026774;28;20049;-88
2021/09/24 00:41:09;;;;;;;3.67;2.88;;;13.60;99.90;;;;;;5037422;28;20047;-87
2021/09/24 00:43:36;;;;;;;3.40;2.47;;;13.80;99.90;;;;;;5055444;28;20434;-87
2021/09/24 00:46:03;;;;;;;5.28;3.17;;;13.50;99.90;;;;;;5037573;28;20029;-87
2021/09/24 00:48:29;;;;;;;7.90;3.28;;;13.30;99.90;;;;;;5037191;28;20434;-88
2021/09/24 00:50:55;;;;;;;4.70;3.03;;;13.10;99.90;;;;;;5037219;28;20028;-87
2021/09/24 00:53:22;;;;;;;6.60;3.33;;;13.30;99.90;;;;;;5037246;28;20032;-87
2021/09/24 00:55:48;;;;;;;4.38;2.88;;;13.20;99.90;;;;;;5037177;28;20024;-88
2021/09/24 00:58:14;;;;;;;4.20;2.92;;;12.90;99.90;;;;;;5036664;28;20025;-88
2021/09/24 01:00:40;;;;;;;3.85;3.17;;;12.80;99.90;;;;;;5037584;28;20025;-88
2021/09/24 01:03:06;;;;;;;7.18;3.13;;;12.80;99.90;;;;;;5037398;28;20048;-88
2021/09/24 01:05:31;;;;;;;3.42;3.13;;;12.80;99.90;;;;;;5037137;28;20036;-87
2021/09/24 01:07:57;;;;;;;5.35;2.67;;;12.60;99.90;;;;;;5036764;28;20075;-88
2021/09/24 01:10:23;;;;;;;5.45;3.22;;;12.30;99.90;;;;;;5037136;28;20112;-87
2021/09/24 01:12:49;;;;;;;5.00;3.40;;;12.40;99.90;;;;;;5036970;28;20025;-87
2021/09/24 01:15:18;;;;;;;3.72;3.08;;;12.70;99.90;;;;;;5037024;28;20037;-87
2021/09/24 01:17:47;;;;;;;5.13;3.22;;;12.60;99.90;;;;;;5036910;28;20029;-88
2021/09/24 01:20:15;;;;;;;4.97;3.00;;;12.70;99.90;;;;;;5036827;28;20126;-87
2021/09/24 01:22:41;;;;;;;4.85;3.00;;;12.80;99.90;;;;;;5037224;28;20021;-87
2021/09/24 01:25:08;;;;;;;6.43;3.10;;;12.60;99.90;;;;;;5036718;28;20029;-87
2021/09/24 01:27:35;;;;;;;8.05;3.38;;;12.50;99.90;;;;;;5036312;28;20458;-88
2021/09/24 01:30:01;;;;;;;4.88;2.67;;;12.40;99.90;;;;;;5036532;28;20484;-87
2021/09/24 01:32:27;;;;;;;5.68;2.92;;;12.50;99.90;;;;;;5036297;28;20502;-88
2021/09/24 01:34:53;;;;;;;8.20;3.20;;;12.80;99.90;;;;;;5054582;28;20025;-87
2021/09/24 01:37:22;;;;;;;4.13;2.97;;;12.80;99.90;;;;;;5054552;28;20021;-88
2021/09/24 01:39:47;;;;;;;4.75;2.80;;;12.90;99.90;;;;;;5015212;28;20520;-88
2021/09/24 01:42:13;;;;;;;4.75;2.78;;;13.10;99.90;;;;;;5013449;28;20026;-88
2021/09/24 01:44:40;;;;;;;5.00;2.70;;;13.10;99.90;;;;;;5014735;28;20030;-88
2021/09/24 01:47:06;;;;;;;3.63;2.55;;;13.10;99.90;;;;;;5013916;28;20160;-87
2021/09/24 01:49:32;;;;;;;5.30;2.60;;;13.20;99.90;;;;;;5013289;28;20430;-88
2021/09/24 01:51:58;;;;;;;4.70;3.15;;;13.20;99.90;;;;;;5013630;28;20026;-88
2021/09/24 01:54:23;;;;;;;4.57;2.70;;;13.20;99.90;;;;;;5013276;28;20116;-88
2021/09/24 01:56:49;;;;;;;7.38;3.30;;;13.30;99.90;;;;;;5013318;28;20161;-87
2021/09/24 01:59:15;;;;;;;3.67;3.10;;;13.20;99.90;;;;;;5014473;28;20029;-88
2021/09/24 02:01:41;;;;;;;7.25;2.97;;;13.10;99.90;;;;;;5012824;28;20068;-88
2021/09/24 02:04:06;;;;;;;4.93;3.10;;;13.00;99.90;;;;;;5013085;28;20473;-88
2021/09/24 02:06:32;;;;;;;5.63;3.20;;;12.70;99.90;;;;;;5012891;28;20034;-88
2021/09/24 02:08:59;;;;;;;4.93;2.97;;;12.50;99.90;;;;;;5012968;28;20056;-87
2021/09/24 02:11:24;;;;;;;5.13;2.90;;;12.40;99.90;;;;;;5014363;28;20076;-88
2021/09/24 02:13:50;;;;;;;3.40;2.92;;;12.30;99.90;;;;;;5013988;28;20025;-87
2021/09/24 02:16:16;;;;;;;5.28;2.95;;;12.20;99.90;;;;;;5012863;28;20468;-88
2021/09/24 02:18:42;;;;;;;5.40;3.35;;;12.30;99.90;;;;;;5012672;28;20121;-87
2021/09/24 02:21:10;;;;;;;6.43;2.85;;;12.30;99.90;;;;;;5012677;28;20109;-88
2021/09/24 02:23:36;;;;;;;9.27;3.50;;;12.40;99.90;;;;;;5012409;28;20487;-88
2021/09/24 02:26:04;;;;;;;5.82;2.83;;;12.10;99.90;;;;;;5012750;28;20022;-88
2021/09/24 02:28:30;;;;;;;6.43;3.17;;;12.00;99.90;;;;;;5012341;28;20092;-87
2021/09/24 02:30:56;;;;;;;3.10;2.80;;;12.20;99.90;;;;;;5013693;28;20022;-87
2021/09/24 02:33:22;;;;;;;5.88;3.25;;;12.20;99.90;;;;;;5013189;28;20022;-88
2021/09/24 02:35:48;;;;;;;5.80;2.95;;;12.20;99.90;;;;;;5012567;28;20018;-88
2021/09/24 02:38:13;;;;;;;5.03;3.03;;;12.60;99.90;;;;;;5012178;28;20100;-87
2021/09/24 02:40:39;;;;;;;5.53;3.30;;;12.60;99.90;;;;;;5012714;28;20026;-88
2021/09/24 02:43:05;;;;;;;3.95;2.88;;;12.30;99.90;;;;;;5012597;28;20397;-88
2021/09/24 02:45:31;;;;;;;6.88;3.38;;;12.20;99.90;;;;;;5012263;28;20062;-88
2021/09/24 02:47:57;;;;;;;5.25;3.05;;;12.20;99.90;;;;;;5012553;28;20436;-87
2021/09/24 02:50:23;;;;;;;6.40;2.80;;;12.10;99.90;;;;;;5012630;28;20113;-88
2021/09/24 02:52:49;;;;;;;6.72;3.33;;;12.00;99.90;;;;;;5012868;28;20026;-87
2021/09/24 02:55:15;;;;;;;4.13;3.25;;;11.70;99.90;;;;;;5012476;28;20382;-88
2021/09/24 02:57:41;;;;;;;7.03;2.90;;;11.70;99.90;;;;;;5012364;28;20061;-89
2021/09/24 03:00:08;;;;;;;8.15;3.08;;;12.00;99.90;;;;;;5012154;28;20076;-88
2021/09/24 03:02:35;;;;;;;4.68;3.00;;;12.30;99.90;;;;;;5012318;28;20026;-87
2021/09/24 03:05:05;;;;;;;3.40;2.60;;;12.70;99.90;;;;;;5012083;28;20030;-87
2021/09/24 03:07:31;;;;;;;3.47;2.80;;;12.90;99.90;;;;;;5012006;28;20030;-88
2021/09/24 03:09:58;;;;;;;3.63;2.88;;;13.00;99.90;;;;;;5013298;28;20097;-88
2021/09/24 03:12:24;;;;;;;9.38;3.40;;;13.20;99.90;;;;;;4995960;28;20052;-87
2021/09/24 03:14:49;;;;;;;3.85;2.97;;;12.60;99.90;;;;;;5012117;28;20014;-88
2021/09/24 03:17:16;;;;;;;6.88;2.97;;;12.30;99.90;;;;;;5012155;28;20034;-88
2021/09/24 03:19:43;;;;;;;3.67;3.05;;;12.00;99.90;;;;;;5012023;28;20030;-88
2021/09/24 03:22:08;;;;;;;3.45;2.95;;;12.00;99.90;;;;;;5014672;28;20397;-87
2021/09/24 03:24:35;;;;;;;3.78;2.90;;;12.50;99.90;;;;;;5016244;28;20048;-88
2021/09/24 03:27:01;;;;;;;3.95;2.70;;;12.80;99.90;;;;;;5017181;28;20378;-88
2021/09/24 03:29:28;;;;;;;3.17;2.58;;;12.90;99.90;;;;;;5016247;28;20026;-88
2021/09/24 03:31:54;;;;;;;5.05;2.65;;;13.00;99.90;;;;;;5015867;28;20050;-87
2021/09/24 03:34:20;;;;;;;6.13;3.03;;;12.90;99.90;;;;;;5015808;28;20104;-87
2021/09/24 03:36:45;;;;;;;4.28;3.17;;;12.80;99.90;;;;;;5015834;28;20038;-87
2021/09/24 03:39:13;;;;;;;5.25;2.90;;;12.90;99.90;;;;;;5042564;28;20041;-87
2021/09/24 03:41:41;;;;;;;3.13;2.50;;;12.90;99.90;;;;;;5038695;28;20033;-88
2021/09/24 03:44:07;;;;;;;3.50;2.75;;;13.10;99.90;;;;;;5038514;28;20017;-87
2021/09/24 03:46:33;;;;;;;5.45;2.78;;;12.80;99.90;;;;;;5038249;28;20466;-88
2021/09/24 03:48:59;;;;;;;4.28;3.05;;;12.60;99.90;;;;;;5056267;28;20100;-87
2021/09/24 03:51:25;;;;;;;4.53;2.88;;;12.30;99.90;;;;;;5038901;28;20032;-87
2021/09/24 03:53:51;;;;;;;3.28;2.53;;;12.30;99.90;;;;;;5056159;28;20361;-87
2021/09/24 03:56:17;;;;;;;5.82;3.20;;;12.30;99.90;;;;;;5038750;28;20121;-87
2021/09/24 03:58:42;;;;;;;4.35;2.40;;;12.10;99.90;;;;;;5038987;28;20521;-88
2021/09/24 04:01:08;;;;;;;5.45;3.30;;;12.00;99.90;;;;;;5056295;28;20021;-88
2021/09/24 04:03:34;;;;;;;4.10;3.47;;;12.00;99.90;;;;;;5055968;28;20074;-88
2021/09/24 04:06:00;;;;;;;5.20;2.92;;;11.80;99.90;;;;;;5055975;28;20033;-87
2021/09/24 04:08:26;;;;;;;4.15;2.75;;;11.90;99.90;;;;;;5038494;28;20373;-88
2021/09/24 04:10:53;;;;;;;6.70;3.58;;;11.90;99.90;;;;;;5037777;28;20100;-87
2021/09/24 04:13:20;;;;;;;3.72;2.95;;;11.90;99.90;;;;;;5038822;28;20040;-88
2021/09/24 04:15:45;;;;;;;4.70;3.35;;;12.00;99.90;;;;;;5055696;28;20035;-88
2021/09/24 04:18:11;;;;;;;5.10;3.17;;;12.00;99.90;;;;;;5038043;28;20116;-87
2021/09/24 04:20:37;;;;;;;4.32;3.10;;;12.50;99.90;;;;;;5055870;28;20025;-88
2021/09/24 04:23:03;;;;;;;4.40;3.00;;;12.60;99.90;;;;;;5037750;28;20072;-87
2021/09/24 04:25:29;;;;;;;4.25;3.05;;;12.90;99.90;;;;;;5037898;28;20029;-87
2021/09/24 04:27:55;;;;;;;8.68;3.20;;;12.60;99.90;;;;;;5055802;28;20032;-88
2021/09/24 04:30:20;;;;;;;3.53;2.50;;;12.10;99.90;;;;;;5037891;28;20024;-87
2021/09/24 04:32:47;;;;;;;5.22;2.47;;;12.40;99.90;;;;;;5036551;28;20024;-87
2021/09/24 04:35:14;;;;;;;3.97;2.78;;;12.70;99.90;;;;;;5037830;28;20029;-87
2021/09/24 04:37:40;;;;;;;3.55;3.00;;;12.70;99.90;;;;;;5037130;28;20116;-87
2021/09/24 04:40:07;;;;;;;5.25;2.80;;;12.60;99.90;;;;;;5037422;28;20029;-88
2021/09/24 04:42:33;;;;;;;6.20;3.10;;;12.40;99.90;;;;;;5055448;28;20388;-88
2021/09/24 04:45:00;;;;;;;6.70;3.10;;;12.40;99.90;;;;;;5055395;28;20081;-88
2021/09/24 04:47:26;;;;;;;5.53;3.38;;;11.90;99.90;;;;;;5037348;28;20033;-87
2021/09/24 04:49:52;;;;;;;7.22;3.03;;;11.60;99.90;;;;;;5055251;28;20021;-88
2021/09/24 04:52:20;;;;;;;6.25;3.05;;;11.90;99.90;;;;;;5055438;28;20371;-87
2021/09/24 04:54:47;;;;;;;5.00;2.78;;;12.10;99.90;;;;;;5037053;28;20028;-89
2021/09/24 04:57:13;;;;;;;4.88;3.20;;;12.10;99.90;;;;;;5038053;28;20165;-88
2021/09/24 04:59:39;;;;;;;4.05;2.88;;;12.50;99.90;;;;;;5037421;28;20052;-88
2021/09/24 05:02:04;;;;;;;4.13;3.05;;;12.60;99.90;;;;;;5055076;28;20025;-87
2021/09/24 05:04:30;;;;;;;4.65;2.55;;;12.50;99.90;;;;;;5054913;28;20040;-87
2021/09/24 05:06:56;;;;;;;3.40;2.60;;;12.70;99.90;;;;;;5055024;28;20075;-87
2021/09/24 05:09:22;;;;;;;3.50;2.80;;;12.70;99.90;;;;;;5037327;28;20079;-87
2021/09/24 05:11:47;;;;;;;4.38;2.97;;;12.70;99.90;;;;;;5037232;28;20017;-87
2021/09/24 05:14:13;;;;;;;5.13;3.42;;;12.60;99.90;;;;;;5036683;28;20071;-88
2021/09/24 05:16:39;;;;;;;3.85;2.97;;;12.50;99.90;;;;;;5036859;28;20116;-87
2021/09/24 05:19:04;;;;;;;4.72;3.33;;;12.50;99.90;;;;;;5055164;28;20033;-87
2021/09/24 05:21:30;;;;;;;5.82;3.13;;;12.30;99.90;;;;;;5054686;28;20503;-87
2021/09/24 05:23:56;;;;;;;3.70;3.10;;;12.30;99.90;;;;;;5036914;28;20174;-87
2021/09/24 05:26:22;;;;;;;7.40;3.22;;;12.30;99.90;;;;;;5036672;28;20025;-88
2021/09/24 05:28:48;;;;;;;5.10;3.90;;;12.10;99.90;;;;;;5036401;28;20024;-87
2021/09/24 05:31:14;;;;;;;5.70;4.45;;;11.80;99.90;;;;;;5036883;28;20031;-88
2021/09/24 05:33:40;;;;;;;11.43;4.20;;;11.50;99.90;;;;;;5036884;28;20098;-87
2021/09/24 05:39:27;;;;;;;4.63;3.60;;;11.50;99.90;;;;;;5047934;28;20458;-88
2021/09/24 05:41:53;;;;;;;3.90;3.05;;;11.50;99.90;;;;;;5039992;28;20029;-87
2021/09/24 05:44:19;;;;;;;6.75;3.50;;;11.80;99.90;;;;;;5040543;28;20025;-88
2021/09/24 05:46:45;;;;;;;4.68;3.08;;;11.60;99.90;;;;;;5037458;28;20029;-88
2021/09/24 05:49:10;;;;;;;7.95;3.60;;;11.50;99.90;;;;;;5054192;28;20500;-87
2021/09/24 05:51:36;;;;;;;4.57;3.53;;;11.40;99.90;;;;;;5036119;28;20025;-87
2021/09/24 05:54:02;;;;;;;7.35;3.70;;;11.40;99.90;;;;;;5036915;28;20021;-88
2021/09/24 05:56:28;;;;;;;9.95;3.53;;;11.50;99.90;;;;;;5036785;28;20067;-86
2021/09/24 05:58:54;;;;;;;7.18;3.30;;;11.60;99.90;;;;;;5054199;28;20025;-87
2021/09/24 06:01:19;;;;;;;4.22;3.25;;;11.90;99.90;;;;;;5036885;28;20060;-87
2021/09/24 06:03:48;;;;;;;3.97;3.30;;;12.20;99.90;;;;;;5054091;28;20052;-88
2021/09/24 06:06:14;;;;;;;6.35;3.50;;;12.30;99.90;;;;;;5035836;28;20052;-87
2021/09/24 06:08:39;;;;;;;3.78;2.88;;;12.60;99.90;;;;;;5053818;28;20055;-87
2021/09/24 06:11:05;;;;;;;8.77;3.20;;;12.80;99.90;;;;;;5036157;28;20032;-87
2021/09/24 06:13:31;;;;;;;5.85;3.47;;;13.00;99.90;;;;;;5035876;28;20177;-87
2021/09/24 06:15:57;;;;;;;7.10;3.58;;;12.80;99.90;;;;;;5036117;28;20017;-87
2021/09/24 06:18:22;;;;;;;7.22;3.83;;;12.60;99.90;;;;;;5035537;28;20056;-87
2021/09/24 06:20:48;;;;;;;4.57;3.30;;;12.40;99.90;;;;;;5035908;28;20029;-87
2021/09/24 06:23:14;;;;;;;3.92;3.30;;;12.50;99.90;;;;;;5036236;28;20119;-87
2021/09/24 06:25:40;;;;;;;5.03;3.60;;;12.50;99.90;;;;;;5035826;28;20460;-87
2021/09/24 06:28:06;;;;;;;5.00;3.38;;;12.50;99.90;;;;;;5035360;28;20104;-87
2021/09/24 06:30:33;;;;;;;5.68;3.30;;;12.60;99.90;;;;;;5035482;28;20024;-87
2021/09/24 06:32:59;;;;;;;11.30;3.63;;;12.70;99.90;;;;;;5035834;28;20028;-87
2021/09/24 06:35:25;;;;;;;4.40;3.72;;;12.70;99.90;;;;;;5036430;28;20165;-87
2021/09/24 06:37:51;;;;;;;5.30;3.70;;;12.80;99.90;;;;;;5035334;28;20036;-87
2021/09/24 06:40:16;;;;;;;7.82;3.55;;;12.70;99.90;;;;;;5035291;28;20056;-88
2021/09/24 06:42:42;;;;;;;7.63;3.33;;;12.80;99.90;;;;;;5034874;28;20032;-87
2021/09/24 06:45:12;;;;;;;7.22;3.72;;;12.90;99.90;;;;;;5035145;28;20060;-87
2021/09/24 06:47:38;;;;;;;5.32;3.83;;;12.90;99.90;;;;;;5035521;28;20025;-87
2021/09/24 06:50:05;;;;;;;9.52;3.70;;;13.00;99.90;;;;;;5035173;28;20025;-87
2021/09/24 06:52:31;;;;;;;7.15;4.07;;;13.00;99.90;;;;;;5035017;28;20043;-87
2021/09/24 06:54:58;;;;;;;8.80;4.30;;;13.20;99.90;;;;;;5035263;28;20028;-88
2021/09/24 06:57:24;;;;;;;7.85;4.63;;;13.30;99.90;;;;;;5038648;28;20025;-88
2021/09/24 06:59:50;;;;;;;5.10;3.78;;;13.30;99.90;;;;;;5039891;28;20032;-88
2021/09/24 07:02:15;;;;;;;8.57;4.20;;;13.50;99.90;;;;;;5039897;28;20487;-88
2021/09/24 07:04:41;;;;;;;5.20;3.80;;;13.70;99.90;;;;;;5040118;28;20021;-88
2021/09/24 07:07:08;;;;;;;12.60;4.28;;;13.90;99.90;;;;;;5039570;28;20029;-89
2021/09/24 07:09:34;;;;;;;6.85;3.50;;;13.80;99.90;;;;;;5039404;28;20365;-88
2021/09/24 07:12:00;;;;;;;5.45;4.10;;;13.90;99.90;;;;;;5039114;28;20028;-88
2021/09/24 07:14:26;;;;;;;7.97;4.20;;;14.10;99.90;;;;;;5039165;28;20025;-88
2021/09/24 07:16:52;;;;;;;5.45;3.35;;;14.30;99.90;;;;;;5039149;28;20021;-88
2021/09/24 07:19:18;;;;;;;5.28;3.40;;;14.40;99.90;;;;;;5022918;28;20120;-88
2021/09/24 07:21:44;;;;;;;5.15;3.50;;;14.70;99.90;;;;;;5039231;28;20438;-88
2021/09/24 07:24:12;;;;;;;9.70;4.28;;;14.80;99.90;;;;;;5057116;28;20407;-88
2021/09/24 07:26:38;;;;;;;8.52;4.22;;;14.90;99.90;;;;;;5038787;28;20025;-88
2021/09/24 07:29:04;;;;;;;6.78;3.40;;;15.00;99.90;;;;;;5038558;28;20092;-88
2021/09/24 07:31:30;;;;;;;7.88;4.20;;;15.20;99.90;;;;;;5038577;28;20049;-88
2021/09/24 07:33:56;;;;;;;6.28;4.15;;;15.40;99.90;;;;;;5038613;28;20025;-88
2021/09/24 07:36:22;;;;;;;5.15;3.70;;;15.40;99.90;;;;;;5038733;28;20029;-88
2021/09/24 07:38:49;;;;;;;4.22;3.80;;;15.40;99.90;;;;;;5055181;28;20049;-88
2021/09/24 07:41:18;;;;;;;9.48;4.20;;;15.50;99.90;;;;;;5038736;28;20111;-87
2021/09/24 07:43:46;;;;;;;5.57;3.70;;;15.70;99.90;;;;;;5055462;28;20037;-88
2021/09/24 07:46:12;;;;;;;9.20;4.88;;;15.90;99.90;;;;;;5038269;28;20020;-88
2021/09/24 07:48:42;;;;;;;8.85;5.00;;;16.00;99.90;;;;;;5056473;28;20476;-89
2021/09/24 07:51:08;;;;;;;8.05;5.00;;;16.10;99.90;;;;;;5038378;28;20024;-89
2021/09/24 07:53:34;;;;;;;5.25;4.60;;;16.20;99.90;;;;;;5038675;28;20482;-88
2021/09/24 07:56:00;;;;;;;4.57;3.47;;;16.50;99.90;;;;;;5041249;28;20052;-88
2021/09/24 07:58:26;;;;;;;6.38;3.95;;;16.60;99.90;;;;;;5041534;28;20036;-88
2021/09/24 08:00:52;;;;;;;6.70;3.78;;;16.70;99.90;;;;;;5022392;28;20029;-88
2021/09/24 08:03:17;;;;;;;5.10;4.15;;;16.90;99.90;;;;;;5038638;28;20036;-89
2021/09/24 08:05:43;;;;;;;6.43;4.22;;;17.10;99.90;;;;;;5038245;28;20379;-88
2021/09/24 08:08:09;;;;;;;5.38;4.20;;;17.20;99.90;;;;;;5037777;28;20028;-87
2021/09/24 08:10:35;;;;;;;12.20;5.53;;;17.10;99.90;;;;;;5055855;28;20104;-88
2021/09/24 08:13:01;;;;;;;6.20;4.32;;;17.20;99.90;;;;;;5021294;28;20120;-88
2021/09/24 08:15:26;;;;;;;5.22;4.65;;;17.40;99.90;;;;;;5037611;28;20017;-88
2021/09/24 08:17:52;;;;;;;10.40;4.28;;;17.50;99.90;;;;;;5037968;28;20544;-89
2021/09/24 08:20:19;;;;;;;6.80;4.63;;;17.50;99.90;;;;;;5037873;28;20095;-87
2021/09/24 08:22:45;;;;;;;7.47;5.18;;;17.60;99.90;;;;;;5037725;28;20032;-88
2021/09/24 08:25:14;;;;;;;9.80;5.03;;;17.50;99.90;;;;;;5037961;28;20025;-88
2021/09/24 08:27:41;;;;;;;7.70;5.20;;;17.60;99.90;;;;;;5055860;28;20112;-88
2021/09/24 08:30:10;;;;;;;5.80;4.63;;;17.80;99.90;;;;;;5054636;28;20033;-88
2021/09/24 08:32:37;;;;;;;7.30;4.75;;;18.10;99.90;;;;;;5037087;28;20040;-88
2021/09/24 08:35:08;;;;;;;10.52;4.43;;;17.90;99.90;;;;;;5037951;28;20071;-89
2021/09/24 08:37:34;;;;;;;9.05;5.25;;;18.20;99.90;;;;;;5037690;28;20108;-88
2021/09/24 08:40:02;;;;;;;11.05;5.00;;;18.00;99.90;;;;;;5037299;28;20049;-87
2021/09/24 08:42:27;;;;;;;7.10;3.75;;;18.20;99.90;;;;;;5037907;28;20040;-88
2021/09/24 08:44:53;;;;;;;7.35;4.35;;;18.50;99.90;;;;;;5037775;28;20021;-88
2021/09/24 08:47:19;;;;;;;8.38;4.50;;;18.60;99.90;;;;;;5037362;28;20056;-87
2021/09/24 08:49:46;;;;;;;10.65;4.28;;;18.80;99.90;;;;;;5054844;28;20078;-88
2021/09/24 08:52:12;;;;;;;8.55;4.28;;;18.80;99.90;;;;;;5037441;28;20017;-88
2021/09/24 08:54:38;;;;;;;11.20;4.50;;;18.90;99.90;;;;;;5054703;28;20160;-88
2021/09/24 08:57:05;;;;;;;8.02;4.05;;;18.90;99.90;;;;;;5037381;28;20028;-88
2021/09/24 08:59:32;;;;;;;8.38;4.40;;;19.00;99.90;;;;;;5037416;28;20108;-88
2021/09/24 09:02:04;;;;;;;4.93;4.07;;;19.00;99.90;;;;;;5021118;28;20029;-88
2021/09/24 09:04:37;;;;;;;9.10;4.18;;;18.90;99.90;;;;;;5037351;28;20028;-88
2021/09/24 09:07:17;;;;;;;7.30;4.65;;;19.00;99.90;;;;;;5037086;28;20063;-88
2021/09/24 09:09:48;;;;;;;9.52;5.35;;;19.20;99.90;;;;;;5055158;28;20025;-88
2021/09/24 09:12:20;;;;;;;7.10;4.32;;;19.10;99.90;;;;;;5037058;28;20018;-89
2021/09/24 09:15:09;;;;;;;8.68;3.90;;;19.20;99.90;;;;;;5054760;28;20041;-87
2021/09/24 09:17:40;;;;;;;5.57;3.97;;;19.30;99.90;;;;;;5022400;28;20033;-87
2021/09/24 09:20:35;;;;;;;8.40;4.68;;;19.60;99.90;;;;;;5037095;28;20591;-88
2021/09/24 09:23:08;;;;;;;6.75;4.00;;;19.50;99.90;;;;;;5017121;28;20028;-88
2021/09/24 09:25:39;;;;;;;4.25;3.78;;;19.70;99.90;;;;;;5037260;28;20083;-88
2021/09/24 09:28:09;;;;;;;9.60;4.40;;;19.90;99.90;;;;;;5037577;28;20095;-86
2021/09/24 09:30:36;;;;;;;6.80;3.45;;;19.90;99.90;;;;;;5054666;28;20052;-88
2021/09/24 09:33:17;;;;;;;13.88;5.18;;;20.10;99.90;;;;;;5054588;28;20069;-88
2021/09/24 09:35:54;;;;;;;10.82;4.63;;;20.10;99.90;;;;;;5036460;28;20033;-88
2021/09/24 09:38:25;;;;;;;4.55;3.22;;;20.10;99.90;;;;;;5036169;28;20075;-88
2021/09/24 09:40:58;;;;;;;5.95;3.38;;;20.50;99.90;;;;;;5036222;28;20102;-88
2021/09/24 09:43:30;;;;;;;8.52;3.35;;;20.70;99.90;;;;;;5036048;28;20024;-86
2021/09/24 09:45:58;;;;;;;6.55;4.20;;;21.20;99.90;;;;;;5036008;28;20120;-87
2021/09/24 09:48:24;;;;;;;4.13;2.95;;;21.40;99.90;;;;;;5036015;28;20530;-88
2021/09/24 09:50:49;;;;;;;6.55;3.90;;;21.00;99.90;;;;;;5053924;28;20025;-88
2021/09/24 09:53:17;;;;;;;5.72;4.28;;;21.10;99.90;;;;;;5036572;28;20109;-87
2021/09/24 09:55:49;;;;;;;6.60;3.35;;;21.30;99.90;;;;;;5036086;28;20120;-87
2021/09/24 09:58:16;;;;;;;7.70;4.13;;;21.40;99.90;;;;;;5036189;28;20483;-87
2021/09/24 10:01:06;;;;;;;6.63;3.38;;;20.90;99.90;;;;;;5053748;28;20029;-88
2021/09/24 10:03:38;;;;;;;6.65;3.38;;;20.90;99.90;;;;;;5035943;28;20516;-87
2021/09/24 10:06:19;;;;;;;6.53;3.45;;;20.30;99.90;;;;;;5036716;28;20353;-87
2021/09/24 10:08:49;;;;;;;4.70;3.45;;;20.20;99.90;;;;;;5037484;28;20028;-88
2021/09/24 10:11:15;;;;;;;7.13;3.70;;;20.60;99.90;;;;;;5039294;28;20353;-88
2021/09/24 10:13:52;;;;;;;6.53;3.88;;;21.30;99.90;;;;;;5036331;28;20024;-88
2021/09/24 10:16:24;;;;;;;7.95;4.28;;;21.50;99.90;;;;;;5035856;28;20055;-88
2021/09/24 10:18:50;;;;;;;6.75;3.80;;;21.10;99.90;;;;;;5035735;28;20112;-88
2021/09/24 10:21:16;;;;;;;6.65;3.95;;;21.60;99.90;;;;;;5035853;28;20078;-88
2021/09/24 10:23:43;;;;;;;6.78;3.10;;;21.80;99.90;;;;;;5035784;28;20020;-88
2021/09/24 10:26:22;;;;;;;5.15;4.03;;;22.40;99.90;;;;;;5053487;28;20025;-87
2021/09/24 10:28:48;;;;;;;7.07;3.47;;;22.80;99.90;;;;;;5053540;28;20483;-88
2021/09/24 10:31:17;;;;;;;4.40;3.95;;;23.20;99.90;;;;;;5053301;28;20104;-88
2021/09/24 10:33:49;;;;;;;5.20;3.35;;;23.50;99.90;;;;;;5053644;28;20028;-87
2021/09/24 10:36:46;;;;;;;6.70;4.10;;;23.40;99.90;;;;;;5053172;28;20025;-87
2021/09/24 10:39:30;;;;;;;6.03;4.40;;;23.10;99.90;;;;;;5035529;28;20045;-87
2021/09/24 10:42:18;;;;;;;5.68;4.05;;;22.90;99.90;;;;;;5053582;28;20068;-87
2021/09/24 10:45:03;;;;;;;5.03;3.25;;;23.30;99.90;;;;;;5035333;28;20033;-87
2021/09/24 10:48:02;;;;;;;9.35;3.22;;;23.80;99.90;;;;;;5053193;28;20025;-88
2021/09/24 10:53:16;;;;;;;8.45;3.25;;;24.40;99.90;;;;;;5053310;28;20361;-87
2021/09/24 10:55:45;;;;;;;4.55;3.25;;;24.40;99.90;;;;;;5035824;28;20468;-87
2021/09/24 10:58:16;;;;;;;5.70;3.20;;;24.60;99.90;;;;;;5035162;28;20053;-87
2021/09/24 11:00:50;;;;;;;7.18;3.10;;;24.90;99.90;;;;;;5035182;28;20021;-88
2021/09/24 11:03:22;;;;;;;4.30;2.97;;;25.00;99.90;;;;;;5035159;28;20029;-88
2021/09/24 11:05:56;;;;;;;5.25;3.20;;;25.70;99.90;;;;;;5035233;28;20123;-87
2021/09/24 11:08:38;;;;;;;5.68;2.90;;;25.30;99.90;;;;;;5035063;28;20112;-87
2021/09/24 11:11:23;;;;;;;5.45;2.63;;;25.10;99.90;;;;;;5035029;28;20035;-88
2021/09/24 11:13:51;;;;;;;13.00;3.35;;;25.30;99.90;;;;;;5035307;28;20017;-88
2021/09/24 11:16:23;;;;;;;4.47;2.78;;;25.60;99.90;;;;;;5035003;28;20017;-87
2021/09/24 11:18:53;;;;;;;4.68;2.17;;;26.00;99.70;;;;;;5035092;28;20036;-88
2021/09/24 11:21:33;;;;;;;5.10;2.88;;;26.30;99.10;;;;;;5035237;28;20511;-87
2021/09/24 11:24:00;;;;;;;6.55;2.47;;;26.10;98.70;;;;;;5053000;28;20025;-87
2021/09/24 11:26:31;;;;;;;6.30;2.33;;;26.30;98.60;;;;;;5034887;28;20515;-88
2021/09/24 11:29:07;;;;;;;2.80;2.15;;;26.50;98.30;;;;;;5035100;28;20025;-88
2021/09/24 11:32:01;;;;;;;5.22;2.50;;;26.80;97.30;;;;;;5034933;28;20025;-88
2021/09/24 11:34:48;;;;;;;6.47;2.40;;;26.60;97.10;;;;;;5034767;28;20108;-87
2021/09/24 11:37:22;;;;;;;6.45;2.92;;;26.50;97.60;;;;;;5034886;28;20036;-88
2021/09/24 11:40:11;;;;;;;5.70;2.58;;;25.40;98.10;;;;;;5034455;28;20045;-86
2021/09/24 11:42:40;;;;;;;4.75;2.70;;;26.20;97.90;;;;;;5053995;28;20036;-88
2021/09/24 11:45:10;;;;;;;6.88;2.60;;;26.70;97.50;;;;;;5022290;28;20033;-90
2021/09/24 11:47:41;;;;;;;3.30;2.28;;;27.50;96.60;;;;;;5038893;28;20033;-89
2021/09/24 11:50:19;;;;;;;6.28;2.30;;;27.50;95.60;;;;;;5056808;28;20013;-89
2021/09/24 11:52:49;;;;;;;3.22;2.35;;;28.20;94.70;;;;;;5038385;28;20124;-89
2021/09/24 11:55:30;;;;;;;5.32;2.58;;;28.50;93.50;;;;;;5038365;28;20017;-88
2021/09/24 11:58:13;;;;;;;7.75;2.45;;;28.40;93.40;;;;;;5038586;28;20029;-89
2021/09/24 12:01:09;;;;;;;5.53;2.05;;;28.00;93.10;;;;;;5038312;28;20025;-89
2021/09/24 12:03:35;;;;;;;2.88;2.40;;;28.50;93.80;;;;;;5020564;28;20037;-88
2021/09/24 12:06:04;;;;;;;3.55;2.38;;;29.10;92.30;;;;;;5038537;28;20504;-88
2021/09/24 12:08:45;;;;;;;2.92;2.22;;;;;;;;;;5037962;28;20060;-89
2021/09/24 12:11:22;;;;;;;2.70;2.30;;;;;;;;;;5038529;28;20361;-89
2021/09/24 12:14:01;;;;;;;4.45;2.60;;;29.10;91.00;;;;;;5038350;28;20571;-89
2021/09/24 12:16:39;;;;;;;4.65;2.50;;;28.80;91.20;;;;;;5038243;28;20091;-89
2021/09/24 12:19:17;;;;;;;4.20;2.30;;;29.10;91.30;;;;;;5039222;28;20025;-89
2021/09/24 12:21:49;;;;;;;4.15;2.47;;;29.40;90.80;;;;;;5039712;28;20032;-90
2021/09/24 12:24:21;;;;;;;4.90;2.65;;;29.50;90.70;;;;;;5039399;28;20024;-89
2021/09/24 12:27:01;;;;;;;3.03;2.30;;;30.10;88.80;;;;;;5056137;28;20033;-90
2021/09/24 12:29:28;;;;;;;2.50;2.20;;;29.50;89.70;;;;;;5038407;28;20088;-90
2021/09/24 12:31:58;;;;;;;4.65;2.28;;;29.90;88.10;;;;;;5037977;28;20025;-88
2021/09/24 12:34:39;;;;;;;12.10;2.78;;;29.90;87.90;;;;;;5037823;28;20502;-87
2021/09/24 12:37:05;;;;;;;3.88;2.22;;;29.90;88.10;;;;;;5037796;28;20360;-88
2021/09/24 12:39:33;;;;;;;2.78;2.33;;;30.80;85.50;;;;;;5054992;28;20547;-87
2021/09/24 12:42:06;;;;;;;4.35;2.20;;;30.50;84.50;;;;;;5055289;28;20082;-88
2021/09/24 12:44:32;;;;;;;2.58;2.28;;;30.60;83.50;;;;;;5055353;28;20028;-88
2021/09/24 12:46:59;;;;;;;2.97;2.17;;;30.90;83.70;;;;;;5037860;28;20029;-88
2021/09/24 12:49:26;;;;;;;5.07;2.20;;;30.70;83.00;;;;;;5037580;28;20557;-89
2021/09/24 12:51:53;;;;;;;2.85;1.90;;;31.00;83.30;;;;;;5055057;28;20071;-90
2021/09/24 12:54:26;;;;;;;3.05;1.80;;;31.60;81.30;;;;;;5036296;28;20543;-89
2021/09/24 12:56:52;;;;;;;5.63;1.95;;;31.80;78.80;;;;;;5037310;28;20024;-89
2021/09/24 12:59:19;;;;;;;2.05;1.77;;;32.00;77.50;;;;;;5038639;28;20554;-89
2021/09/24 13:01:51;;;;;;;5.35;2.17;;;32.10;77.50;;;;;;5037393;28;20025;-89